Time;durP1;ratioP1;P1;durP2;ratioP2;P2;SDS_P1;SDS_P2;PMS_P1;PMS_P2;Temp;Humidity;BMP_temperature;BMP_pressure;BME280_temperature;BME280_humidity;BME280_pressure;Samples;Min_cycle;Max_cycle;Signal;HPM_P1;HPM_P2
2021/01/30 00:00:16;;;;;;;29.42;25.42;;;;;;;;;;5114531;28;20023;-39
2021/01/30 00:02:41;;;;;;;40.85;30.38;;;;;;;;;;5114373;28;20424;-41
2021/01/30 00:05:07;;;;;;;32.63;27.25;;;;;;;;;;5114062;28;20080;-42
2021/01/30 00:07:32;;;;;;;43.10;32.05;;;;;;;;;;5114323;28;20077;-41
2021/01/30 00:09:58;;;;;;;48.20;29.25;;;;;;;;;;5114065;27;20016;-44
2021/01/30 00:12:23;;;;;;;29.30;23.73;;;;;;;;;;5114683;28;20011;-38
2021/01/30 00:14:48;;;;;;;37.75;30.52;;;;;;;;;;5114026;28;20046;-42
2021/01/30 00:17:14;;;;;;;36.78;25.30;;;;;;;;;;5114820;28;20452;-38
2021/01/30 00:19:39;;;;;;;18.52;16.52;;;;;;;;;;5114106;28;20440;-38
2021/01/30 00:22:07;;;;;;;20.50;16.45;;;;;;;;;;5114170;28;20023;-38
2021/01/30 00:24:32;;;;;;;20.90;15.15;;;;;;;;;;5114036;28;20019;-44
2021/01/30 00:26:59;;;;;;;14.15;10.23;;;;;;;;;;5114104;28;20028;-38
2021/01/30 00:29:26;;;;;;;9.02;6.35;;;;;;;;;;5113974;28;20096;-41
2021/01/30 00:31:51;;;;;;;9.48;6.90;;;;;;;;;;5113996;28;20042;-38
2021/01/30 00:34:18;;;;;;;11.13;7.97;;;;;;;;;;5113892;28;20360;-39
2021/01/30 00:36:43;;;;;;;14.07;9.35;;;;;;;;;;5113895;28;20513;-38
2021/01/30 00:39:08;;;;;;;12.20;10.75;;;;;;;;;;5114221;28;20023;-38
2021/01/30 00:41:34;;;;;;;11.25;10.05;;;;;;;;;;5114001;28;20450;-38
2021/01/30 00:43:59;;;;;;;18.27;11.00;;;;;;;;;;5113976;28;20448;-39
2021/01/30 00:46:25;;;;;;;22.60;9.27;;;;;;;;;;5113242;28;20024;-42
2021/01/30 00:48:50;;;;;;;16.08;9.32;;;;;;;;;;5113955;28;20019;-39
2021/01/30 00:51:16;;;;;;;13.38;9.35;;;;;;;;;;5113667;28;20467;-39
2021/01/30 00:53:41;;;;;;;10.60;9.50;;;;;;;;;;5113271;28;20027;-39
2021/01/30 00:56:07;;;;;;;13.15;8.45;;;;;;;;;;5114164;28;20449;-43
2021/01/30 00:58:32;;;;;;;19.95;9.68;;;;;;;;;;5114031;28;20020;-39
2021/01/30 01:00:57;;;;;;;14.52;9.85;;;;;;;;;;5114024;28;20011;-39
2021/01/30 01:03:22;;;;;;;13.43;9.35;;;;;;;;;;5113239;28;20452;-39
2021/01/30 01:05:48;;;;;;;16.85;9.57;;;;;;;;;;5113409;28;20023;-39
2021/01/30 01:08:13;;;;;;;16.63;8.68;;;;;;;;;;5113767;28;20027;-38
2021/01/30 01:10:38;;;;;;;11.38;5.88;;;;;;;;;;5113142;28;20440;-38
2021/01/30 01:13:04;;;;;;;14.93;8.88;;;;;;;;;;5113518;28;20103;-38
2021/01/30 01:15:29;;;;;;;16.00;9.45;;;;;;;;;;5113016;28;20413;-38
2021/01/30 01:17:54;;;;;;;13.63;6.97;;;;;;;;;;5113772;28;20019;-38
2021/01/30 01:20:21;;;;;;;12.00;9.05;;;;;;;;;;5113291;28;20020;-38
2021/01/30 01:22:47;;;;;;;15.43;12.80;;;;;;;;;;5113807;28;20027;-40
2021/01/30 01:25:12;;;;;;;22.30;14.98;;;;;;;;;;5112950;28;20020;-38
2021/01/30 01:27:38;;;;;;;23.23;17.08;;;;;;;;;;5113542;28;20102;-39
2021/01/30 01:30:05;;;;;;;26.75;16.23;;;;;;;;;;5113018;28;20020;-41
2021/01/30 01:32:30;;;;;;;26.00;18.27;;;;;;;;;;5113331;28;20106;-37
2021/01/30 01:34:55;;;;;;;23.38;15.32;;;;;;;;;;5113236;28;20153;-37
2021/01/30 01:37:21;;;;;;;18.50;14.70;;;;;;;;;;5113337;28;20023;-39
2021/01/30 01:39:46;;;;;;;21.33;14.60;;;;;;;;;;5113444;28;20016;-39
2021/01/30 01:42:16;;;;;;;17.20;14.57;;;;;;;;;;5112856;28;20236;-40
2021/01/30 01:44:43;;;;;;;22.25;17.27;;;;;;;;;;5112826;28;20008;-40
2021/01/30 01:47:10;;;;;;;20.50;13.88;;;;;;;;;;5113409;28;20461;-38
2021/01/30 01:49:37;;;;;;;19.48;12.90;;;;;;;;;;5113329;28;20099;-38
2021/01/30 01:52:21;;;;;;;15.45;10.73;;;;;;;;;;5113355;28;20027;-38
2021/01/30 01:54:48;;;;;;;9.80;8.85;;;;;;;;;;5112956;28;20011;-42
2021/01/30 01:57:14;;;;;;;11.45;9.65;;;;;;;;;;5113135;28;20039;-38
2021/01/30 01:59:42;;;;;;;15.10;10.93;;;;;;;;;;5113216;28;20094;-39
2021/01/30 02:02:08;;;;;;;17.88;12.88;;;;;;;;;;5112912;28;20436;-41
2021/01/30 02:04:33;;;;;;;20.40;14.35;;;;;;;;;;5112599;28;20027;-39
2021/01/30 02:06:59;;;;;;;21.70;13.43;;;;;;;;;;5112688;28;20028;-39
2021/01/30 02:09:26;;;;;;;18.23;12.35;;;;;;;;;;5112692;28;20117;-39
2021/01/30 02:12:00;;;;;;;18.98;13.00;;;;;;;;;;5112904;28;20077;-40
2021/01/30 02:14:26;;;;;;;24.17;13.98;;;;;;;;;;5112922;28;20134;-38
2021/01/30 02:17:00;;;;;;;16.70;12.88;;;;;;;;;;5116359;28;20459;-38
2021/01/30 02:19:25;;;;;;;14.20;11.85;;;;;;;;;;5116841;28;20019;-38
2021/01/30 02:21:50;;;;;;;15.57;10.98;;;;;;;;;;5116470;28;20024;-41
2021/01/30 02:24:21;;;;;;;11.75;9.20;;;;;;;;;;5116396;28;20050;-38
2021/01/30 02:26:58;;;;;;;15.70;10.77;;;;;;;;;;5116313;28;20039;-43
2021/01/30 02:29:24;;;;;;;17.00;8.85;;;;;;;;;;5116319;28;20011;-38
2021/01/30 02:31:52;;;;;;;12.43;10.40;;;;;;;;;;5116240;28;20100;-41
2021/01/30 02:34:36;;;;;;;18.30;10.43;;;;;;;;;;5115979;28;20043;-38
2021/01/30 02:37:08;;;;;;;21.10;10.50;;;;;;;;;;5115876;28;20028;-44
2021/01/30 02:39:47;;;;;;;9.93;8.38;;;;;;;;;;5116622;28;20047;-41
2021/01/30 02:42:15;;;;;;;19.23;11.55;;;;;;;;;;5115887;28;20031;-42
2021/01/30 02:44:43;;;;;;;15.70;12.07;;;;;;;;;;5115982;28;20355;-40
2021/01/30 02:47:10;;;;;;;16.02;13.55;;;;;;;;;;5116129;28;20027;-38
2021/01/30 02:49:37;;;;;;;24.35;10.18;;;;;;;;;;5115693;28;20050;-38
2021/01/30 02:52:22;;;;;;;16.30;10.85;;;;;;;;;;5115938;28;20031;-39
2021/01/30 02:54:49;;;;;;;16.05;8.77;;;;;;;;;;5115620;28;20468;-43
2021/01/30 02:57:17;;;;;;;14.85;9.50;;;;;;;;;;5115901;28;20023;-39
2021/01/30 02:59:47;;;;;;;16.83;8.65;;;;;;;;;;5116024;28;20015;-39
2021/01/30 03:02:14;;;;;;;11.67;7.63;;;;;;;;;;5114989;28;20344;-40
2021/01/30 03:04:39;;;;;;;11.07;6.95;;;;;;;;;;5115249;28;20232;-38
2021/01/30 03:07:07;;;;;;;7.57;4.90;;;;;;;;;;5115630;27;20019;-38
2021/01/30 03:09:35;;;;;;;8.35;4.18;;;;;;;;;;5115578;28;20023;-39
2021/01/30 03:12:05;;;;;;;6.82;5.00;;;;;;;;;;5115295;28;20023;-41
2021/01/30 03:14:31;;;;;;;17.05;5.93;;;;;;;;;;5115163;28;20019;-38
2021/01/30 03:16:59;;;;;;;13.90;5.95;;;;;;;;;;5115423;28;20397;-39
2021/01/30 03:19:26;;;;;;;7.93;4.28;;;;;;;;;;5115354;28;20026;-39
2021/01/30 03:21:54;;;;;;;9.40;7.00;;;;;;;;;;5115352;28;20026;-39
2021/01/30 03:24:19;;;;;;;11.10;6.43;;;;;;;;;;5115570;28;20019;-39
2021/01/30 03:26:45;;;;;;;7.38;5.05;;;;;;;;;;5114509;28;20443;-40
2021/01/30 03:29:15;;;;;;;14.00;6.07;;;;;;;;;;5115223;28;20420;-40
2021/01/30 03:31:40;;;;;;;10.45;6.38;;;;;;;;;;5115338;28;20035;-37
2021/01/30 03:34:07;;;;;;;13.70;6.82;;;;;;;;;;5115378;28;20069;-42
2021/01/30 03:36:32;;;;;;;9.80;5.22;;;;;;;;;;5114964;28;20022;-40
2021/01/30 03:38:57;;;;;;;17.77;7.18;;;;;;;;;;5115544;28;20020;-38
2021/01/30 03:41:23;;;;;;;13.77;7.10;;;;;;;;;;5115181;28;20016;-38
2021/01/30 03:43:48;;;;;;;6.07;4.38;;;;;;;;;;5114890;28;20050;-39
2021/01/30 03:46:13;;;;;;;10.80;5.97;;;;;;;;;;5115008;28;20022;-38
2021/01/30 03:48:39;;;;;;;8.80;4.90;;;;;;;;;;5115446;28;20026;-39
2021/01/30 03:51:04;;;;;;;12.82;4.70;;;;;;;;;;5114800;28;20016;-38
2021/01/30 03:53:29;;;;;;;9.23;4.93;;;;;;;;;;5115529;28;20440;-39
2021/01/30 03:55:55;;;;;;;11.07;4.57;;;;;;;;;;5114306;28;20367;-38
2021/01/30 03:58:20;;;;;;;17.83;4.88;;;;;;;;;;5115480;28;20034;-39
2021/01/30 04:00:45;;;;;;;5.40;3.20;;;;;;;;;;5114556;28;20026;-38
2021/01/30 04:03:10;;;;;;;6.25;3.30;;;;;;;;;;5114963;28;20103;-38
2021/01/30 04:05:36;;;;;;;13.48;4.40;;;;;;;;;;5114067;27;20448;-39
2021/01/30 04:08:02;;;;;;;7.57;3.30;;;;;;;;;;5114721;28;20032;-40
2021/01/30 04:10:29;;;;;;;6.28;4.97;;;;;;;;;;5114372;28;20019;-37
2021/01/30 04:12:55;;;;;;;12.40;4.63;;;;;;;;;;5114726;28;20023;-38
2021/01/30 04:15:22;;;;;;;8.80;5.38;;;;;;;;;;5114517;28;20066;-37
2021/01/30 04:17:48;;;;;;;5.38;3.17;;;;;;;;;;5114565;28;20026;-38
2021/01/30 04:20:14;;;;;;;7.65;3.75;;;;;;;;;;5114224;28;20015;-37
2021/01/30 04:22:40;;;;;;;8.27;4.40;;;;;;;;;;5114388;28;20444;-37
2021/01/30 04:25:06;;;;;;;6.35;3.55;;;;;;;;;;5113964;28;20103;-38
2021/01/30 04:27:31;;;;;;;5.85;3.78;;;;;;;;;;5114198;28;20065;-41
2021/01/30 04:29:56;;;;;;;6.28;4.38;;;;;;;;;;5113976;28;20087;-37
2021/01/30 04:32:23;;;;;;;9.85;4.43;;;;;;;;;;5112706;28;20071;-40
2021/01/30 04:34:48;;;;;;;6.15;4.28;;;;;;;;;;5113905;28;20047;-38
2021/01/30 04:37:13;;;;;;;27.83;18.20;;;;;;;;;;5114019;28;20509;-37
2021/01/30 04:39:39;;;;;;;16.33;12.45;;;;;;;;;;5113158;28;20012;-37
2021/01/30 04:42:07;;;;;;;27.05;14.45;;;;;;;;;;5113888;28;20035;-38
2021/01/30 04:44:47;;;;;;;17.77;12.43;;;;;;;;;;5114816;28;20458;-38
2021/01/30 04:47:27;;;;;;;9.60;7.25;;;;;;;;;;5113739;28;20036;-37
2021/01/30 04:49:55;;;;;;;15.30;8.82;;;;;;;;;;5113664;28;20504;-38
2021/01/30 04:52:41;;;;;;;12.93;7.90;;;;;;;;;;5113540;28;20027;-40
2021/01/30 04:55:25;;;;;;;12.00;8.18;;;;;;;;;;5113578;28;20038;-37
2021/01/30 04:57:50;;;;;;;16.13;9.02;;;;;;;;;;5113633;28;20024;-38
2021/01/30 05:00:15;;;;;;;11.25;7.00;;;;;;;;;;5113280;28;20016;-37
2021/01/30 05:02:44;;;;;;;10.68;7.13;;;;;;;;;;5113948;28;20420;-38
2021/01/30 05:05:11;;;;;;;9.10;7.82;;;;;;;;;;5113347;28;20035;-39
2021/01/30 05:07:42;;;;;;;10.05;7.75;;;;;;;;;;5113903;28;20019;-37
2021/01/30 05:10:16;;;;;;;11.40;7.55;;;;;;;;;;5113407;28;20043;-38
2021/01/30 05:12:47;;;;;;;8.55;5.57;;;;;;;;;;5113613;28;20027;-37
2021/01/30 05:15:25;;;;;;;4.35;3.92;;;;;;;;;;5113374;28;20135;-39
2021/01/30 05:17:53;;;;;;;5.68;3.70;;;;;;;;;;5113925;28;20034;-38
2021/01/30 05:20:18;;;;;;;10.10;4.43;;;;;;;;;;5113012;28;20012;-39
2021/01/30 05:22:46;;;;;;;7.95;5.82;;;;;;;;;;5113424;28;20106;-38
2021/01/30 05:25:14;;;;;;;7.25;5.13;;;;;;;;;;5113253;28;20119;-37
2021/01/30 05:28:01;;;;;;;7.55;5.07;;;;;;;;;;5113039;28;20024;-38
2021/01/30 05:30:33;;;;;;;7.57;4.75;;;;;;;;;;5113262;28;20012;-37
2021/01/30 05:33:01;;;;;;;6.63;5.28;;;;;;;;;;5113710;28;20024;-37
2021/01/30 05:35:30;;;;;;;5.65;4.53;;;;;;;;;;5112861;28;20023;-41
2021/01/30 05:38:02;;;;;;;7.40;5.93;;;;;;;;;;5113727;28;20068;-38
2021/01/30 05:40:27;;;;;;;7.47;5.53;;;;;;;;;;5113349;28;20020;-39
2021/01/30 05:42:58;;;;;;;5.95;4.00;;;;;;;;;;5113038;28;20047;-39
2021/01/30 05:45:41;;;;;;;13.32;4.20;;;;;;;;;;5112953;28;20019;-37
2021/01/30 05:48:14;;;;;;;7.35;5.68;;;;;;;;;;5111957;28;20023;-38
2021/01/30 05:50:57;;;;;;;6.65;5.60;;;;;;;;;;5115060;28;20098;-37
2021/01/30 05:53:24;;;;;;;15.00;4.85;;;;;;;;;;5117429;28;20106;-40
2021/01/30 05:55:50;;;;;;;8.40;6.25;;;;;;;;;;5117271;28;20092;-38
2021/01/30 05:58:17;;;;;;;9.68;5.60;;;;;;;;;;5117261;28;20440;-38
2021/01/30 06:00:42;;;;;;;10.00;6.10;;;;;;;;;;5116459;28;20043;-37
2021/01/30 06:03:12;;;;;;;12.50;5.28;;;;;;;;;;5116948;28;20437;-38
2021/01/30 06:06:06;;;;;;;6.90;5.00;;;;;;;;;;5116523;28;20020;-38
2021/01/30 06:08:32;;;;;;;5.45;4.72;;;;;;;;;;5117156;28;20027;-41
2021/01/30 06:11:03;;;;;;;6.53;4.75;;;;;;;;;;5116630;28;20091;-39
2021/01/30 06:13:29;;;;;;;4.32;2.75;;;;;;;;;;5117084;28;20028;-38
2021/01/30 06:15:56;;;;;;;4.10;2.22;;;;;;;;;;5116567;28;20015;-41
2021/01/30 06:18:32;;;;;;;7.40;3.55;;;;;;;;;;5116297;28;20111;-39
2021/01/30 06:21:00;;;;;;;4.75;2.28;;;;;;;;;;5116753;28;20476;-39
2021/01/30 06:23:25;;;;;;;3.78;1.88;;;;;;;;;;5116788;28;20103;-38
2021/01/30 06:25:51;;;;;;;3.80;2.35;;;;;;;;;;5115923;28;20426;-38
2021/01/30 06:28:24;;;;;;;5.75;2.95;;;;;;;;;;5116607;28;20124;-39
2021/01/30 06:30:50;;;;;;;2.92;2.13;;;;;;;;;;5116360;28;20015;-38
2021/01/30 06:33:21;;;;;;;5.45;3.03;;;;;;;;;;5116420;28;20030;-41
2021/01/30 06:35:47;;;;;;;4.38;2.22;;;;;;;;;;5116415;28;20375;-40
2021/01/30 06:38:16;;;;;;;2.70;1.95;;;;;;;;;;5116520;28;20023;-40
2021/01/30 06:40:50;;;;;;;8.80;1.85;;;;;;;;;;5116159;28;20152;-40
2021/01/30 06:43:19;;;;;;;3.38;2.58;;;;;;;;;;5116132;28;20092;-38
2021/01/30 06:45:45;;;;;;;2.85;1.83;;;;;;;;;;5115953;28;20023;-38
2021/01/30 06:48:28;;;;;;;4.30;2.30;;;;;;;;;;5116337;28;20420;-38
2021/01/30 06:50:53;;;;;;;3.63;2.03;;;;;;;;;;5115710;28;20044;-37
2021/01/30 06:53:22;;;;;;;4.35;2.47;;;;;;;;;;5116538;28;20447;-38
2021/01/30 06:55:48;;;;;;;2.95;1.88;;;;;;;;;;5114945;28;20458;-38
2021/01/30 06:58:39;;;;;;;7.47;1.75;;;;;;;;;;5116111;28;20478;-37
2021/01/30 07:01:25;;;;;;;3.25;1.90;;;;;;;;;;5112227;28;20023;-40
2021/01/30 07:04:07;;;;;;;2.50;1.48;;;;;;;;;;5115176;28;20032;-38
2021/01/30 07:06:32;;;;;;;3.55;2.15;;;;;;;;;;5116068;28;20061;-37
2021/01/30 07:09:06;;;;;;;10.65;1.33;;;;;;;;;;5115360;28;20067;-37
2021/01/30 07:11:31;;;;;;;2.15;1.38;;;;;;;;;;5115484;28;20024;-39
2021/01/30 07:13:57;;;;;;;2.47;1.17;;;;;;;;;;5115645;28;20022;-37
2021/01/30 07:16:29;;;;;;;1.52;0.70;;;;;;;;;;5115491;28;20016;-38
2021/01/30 07:19:03;;;;;;;8.85;7.82;;;;;;;;;;5115165;28;20347;-37
2021/01/30 07:21:30;;;;;;;3.85;1.38;;;;;;;;;;5115340;28;20026;-37
2021/01/30 07:24:01;;;;;;;3.05;1.20;;;;;;;;;;5115365;28;20065;-37
2021/01/30 07:26:26;;;;;;;1.33;0.93;;;;;;;;;;5115394;28;20023;-37
2021/01/30 07:28:58;;;;;;;1.17;1.05;;;;;;;;;;5115226;28;20023;-38
2021/01/30 07:31:23;;;;;;;2.15;1.48;;;;;;;;;;5115188;28;20011;-37
2021/01/30 07:33:50;;;;;;;9.15;2.10;;;;;;;;;;5115348;28;20030;-39
2021/01/30 07:36:33;;;;;;;1.98;1.45;;;;;;;;;;5115381;28;20094;-37
2021/01/30 07:39:04;;;;;;;2.47;1.42;;;;;;;;;;5114785;28;20413;-37
2021/01/30 07:41:36;;;;;;;5.65;4.18;;;;;;;;;;5114879;28;20055;-37
2021/01/30 07:44:13;;;;;;;4.72;2.53;;;;;;;;;;5115080;28;20394;-41
2021/01/30 07:46:40;;;;;;;7.63;1.58;;;;;;;;;;5114785;28;20398;-37
2021/01/30 07:49:06;;;;;;;1.52;0.85;;;;;;;;;;5114594;28;20019;-40
2021/01/30 07:51:35;;;;;;;2.92;1.83;;;;;;;;;;5114603;28;20136;-41
2021/01/30 07:54:01;;;;;;;2.28;1.42;;;;;;;;;;5114784;28;20015;-39
2021/01/30 07:56:47;;;;;;;3.42;1.85;;;;;;;;;;5114359;28;20371;-39
2021/01/30 07:59:30;;;;;;;2.88;1.55;;;;;;;;;;5114842;28;20367;-38
2021/01/30 08:02:21;;;;;;;2.55;1.75;;;;;;;;;;5114839;28;20023;-39
2021/01/30 08:05:04;;;;;;;5.93;2.40;;;;;;;;;;5114660;28;20016;-40
2021/01/30 08:07:56;;;;;;;2.72;2.00;;;;;;;;;;5114545;28;20032;-37
2021/01/30 08:10:40;;;;;;;1.50;0.95;;;;;;;;;;5109275;28;20114;-38
2021/01/30 08:13:18;;;;;;;3.42;1.65;;;;;;;;;;5114697;28;20428;-39
2021/01/30 08:15:46;;;;;;;2.97;1.17;;;;;;;;;;5114293;28;20467;-38
2021/01/30 08:18:30;;;;;;;1.58;0.93;;;;;;;;;;5114545;28;20448;-42
2021/01/30 08:21:14;;;;;;;4.95;3.05;;;;;;;;;;5114369;28;20012;-38
2021/01/30 08:23:58;;;;;;;1.52;0.93;;;;;;;;;;5114487;28;20020;-40
2021/01/30 08:26:41;;;;;;;1.50;1.40;;;;;;;;;;5113572;28;20016;-38
2021/01/30 08:29:11;;;;;;;5.25;1.42;;;;;;;;;;5113514;28;20380;-38
2021/01/30 08:31:39;;;;;;;2.00;1.35;;;;;;;;;;5114000;28;20015;-39
2021/01/30 08:34:04;;;;;;;3.90;1.95;;;;;;;;;;5114256;28;20027;-41
2021/01/30 08:36:30;;;;;;;3.47;2.42;;;;;;;;;;5113434;28;20513;-39
2021/01/30 08:39:15;;;;;;;3.85;2.65;;;;;;;;;;5113551;28;20015;-39
2021/01/30 08:41:42;;;;;;;4.05;2.35;;;;;;;;;;5114171;28;20095;-39
2021/01/30 08:44:17;;;;;;;2.83;1.73;;;;;;;;;;5113502;28;20476;-39
2021/01/30 08:46:44;;;;;;;4.82;1.90;;;;;;;;;;5113647;28;20443;-39
2021/01/30 08:49:19;;;;;;;3.83;1.35;;;;;;;;;;5113622;28;20019;-38
2021/01/30 08:51:49;;;;;;;3.03;2.15;;;;;;;;;;5113791;28;20046;-37
2021/01/30 08:54:23;;;;;;;4.10;2.78;;;;;;;;;;5113599;28;20072;-38
2021/01/30 08:56:50;;;;;;;8.23;3.83;;;;;;;;;;5113604;28;20015;-39
2021/01/30 08:59:34;;;;;;;2.97;2.00;;;;;;;;;;5113611;28;20081;-38
2021/01/30 09:01:59;;;;;;;8.40;2.10;;;;;;;;;;5113185;28;20020;-38
2021/01/30 09:04:44;;;;;;;4.47;2.92;;;;;;;;;;5113973;28;20016;-37
2021/01/30 09:07:29;;;;;;;3.10;2.15;;;;;;;;;;5113369;28;20035;-40
2021/01/30 09:10:21;;;;;;;4.22;1.95;;;;;;;;;;5113812;28;20026;-42
2021/01/30 09:12:54;;;;;;;2.38;1.52;;;;;;;;;;5089779;28;20039;-44
2021/01/30 09:18:23;;;;;;;3.58;2.05;;;;;;;;;;5114196;28;20034;-40
2021/01/30 09:20:51;;;;;;;3.53;1.42;;;;;;;;;;5113524;28;20019;-43
2021/01/30 09:23:34;;;;;;;3.50;1.23;;;;;;;;;;5113929;28;20103;-41
2021/01/30 09:29:03;;;;;;;7.05;3.33;;;;;;;;;;5117515;28;20432;-43
2021/01/30 09:31:29;;;;;;;6.25;3.15;;;;;;;;;;5117458;28;20080;-42
2021/01/30 09:33:57;;;;;;;5.72;2.75;;;;;;;;;;5117862;28;20019;-44
2021/01/30 09:36:24;;;;;;;3.38;2.03;;;;;;;;;;5117544;28;20028;-42
2021/01/30 09:38:51;;;;;;;3.83;1.25;;;;;;;;;;5117608;28;20102;-42
2021/01/30 09:41:16;;;;;;;6.88;4.60;;;;;;;;;;5117471;28;20106;-41
2021/01/30 09:43:42;;;;;;;11.43;5.05;;;;;;;;;;5117652;28;20124;-42
2021/01/30 09:46:09;;;;;;;3.33;2.22;;;;;;;;;;5117262;28;20015;-44
2021/01/30 09:48:36;;;;;;;6.57;4.75;;;;;;;;;;5117521;28;20032;-42
2021/01/30 09:51:02;;;;;;;12.63;6.45;;;;;;;;;;5116750;28;20110;-42
2021/01/30 09:53:32;;;;;;;5.35;3.42;;;;;;;;;;5117464;28;20083;-40
2021/01/30 09:56:06;;;;;;;6.03;3.53;;;;;;;;;;5117653;28;20034;-45
2021/01/30 09:58:32;;;;;;;4.10;3.10;;;;;;;;;;5117434;27;20038;-43
2021/01/30 10:01:01;;;;;;;3.90;2.78;;;;;;;;;;5116949;28;20107;-43
2021/01/30 10:03:33;;;;;;;10.73;4.03;;;;;;;;;;5116617;28;20027;-42
2021/01/30 10:06:07;;;;;;;5.03;2.92;;;;;;;;;;5116870;28;20507;-45
2021/01/30 10:08:33;;;;;;;5.45;3.72;;;;;;;;;;5117286;28;20024;-46
2021/01/30 10:11:04;;;;;;;10.75;3.17;;;;;;;;;;5116912;28;20485;-41
2021/01/30 10:13:30;;;;;;;7.32;2.80;;;;;;;;;;5117088;28;20339;-44
2021/01/30 10:15:56;;;;;;;5.03;2.92;;;;;;;;;;5116472;28;20083;-42
2021/01/30 10:18:22;;;;;;;5.53;2.28;;;;;;;;;;5116860;28;20031;-46
2021/01/30 10:20:56;;;;;;;2.65;1.77;;;;;;;;;;5116719;28;20420;-44
2021/01/30 10:23:29;;;;;;;7.60;3.20;;;;;;;;;;5117096;27;20394;-47
2021/01/30 10:26:12;;;;;;;6.55;3.78;;;;;;;;;;5116760;28;20102;-44
2021/01/30 10:28:56;;;;;;;2.83;1.55;;;;;;;;;;5116604;28;20118;-42
2021/01/30 10:31:28;;;;;;;4.40;1.98;;;;;;;;;;5115976;28;20018;-43
2021/01/30 10:34:17;;;;;;;4.75;2.85;;;;;;;;;;5115935;28;20028;-42
2021/01/30 10:36:46;;;;;;;4.60;3.03;;;;;;;;;;5107785;28;20039;-42
2021/01/30 10:39:11;;;;;;;5.80;2.55;;;;;;;;;;5116242;28;20095;-43
2021/01/30 10:41:39;;;;;;;24.40;3.20;;;;;;;;;;5115732;28;20011;-44
2021/01/30 10:44:05;;;;;;;14.57;5.95;;;;;;;;;;5116099;28;20048;-41
2021/01/30 10:46:40;;;;;;;13.38;6.20;;;;;;;;;;5115504;28;20035;-40
2021/01/30 10:49:23;;;;;;;11.18;6.60;;;;;;;;;;5116614;28;20064;-58
2021/01/30 10:51:55;;;;;;;11.77;6.90;;;;;;;;;;5115843;28;20019;-44
2021/01/30 10:54:28;;;;;;;10.80;3.75;;;;;;;;;;5116588;28;20056;-43
2021/01/30 10:57:00;;;;;;;10.77;5.18;;;;;;;;;;5115605;28;20444;-41
2021/01/30 10:59:25;;;;;;;15.93;4.78;;;;;;;;;;5115628;28;20012;-46
2021/01/30 11:01:50;;;;;;;9.10;4.53;;;;;;;;;;5115741;28;20024;-41
2021/01/30 11:04:23;;;;;;;5.53;2.88;;;;;;;;;;5115639;28;20467;-42
2021/01/30 11:06:49;;;;;;;7.25;3.85;;;;;;;;;;5115187;28;20043;-44
2021/01/30 11:09:23;;;;;;;10.60;4.28;;;;;;;;;;5115340;28;20070;-40
2021/01/30 11:11:49;;;;;;;7.15;2.50;;;;;;;;;;5115414;28;20019;-41
2021/01/30 11:14:20;;;;;;;3.40;2.55;;;;;;;;;;5115999;28;20045;-44
2021/01/30 11:16:45;;;;;;;6.28;2.92;;;;;;;;;;5115433;28;20518;-42
2021/01/30 11:19:20;;;;;;;4.95;2.58;;;;;;;;;;5115364;28;20046;-42
2021/01/30 11:21:46;;;;;;;5.35;2.60;;;;;;;;;;5115989;28;20115;-43
2021/01/30 11:24:46;;;;;;;7.78;2.60;;;;;;;;;;5115023;28;20047;-42
2021/01/30 11:27:27;;;;;;;7.53;2.25;;;;;;;;;;5104374;28;20075;-46
2021/01/30 11:29:52;;;;;;;8.18;2.30;;;;;;;;;;5115131;28;20165;-42
2021/01/30 11:32:20;;;;;;;8.30;3.50;;;;;;;;;;5115795;28;20109;-42
2021/01/30 11:34:46;;;;;;;9.93;2.88;;;;;;;;;;5115031;28;20027;-43
2021/01/30 11:37:13;;;;;;;6.97;2.58;;;;;;;;;;5114879;28;20512;-47
2021/01/30 11:39:40;;;;;;;11.13;2.85;;;;;;;;;;5114579;28;20027;-40
2021/01/30 11:42:06;;;;;;;6.10;3.35;;;;;;;;;;5115417;27;20144;-41
2021/01/30 11:44:31;;;;;;;7.85;2.45;;;;;;;;;;5114140;28;20375;-42
2021/01/30 11:46:57;;;;;;;11.98;4.63;;;;;;;;;;5114328;28;20093;-44
2021/01/30 11:49:22;;;;;;;6.07;3.10;;;;;;;;;;5114044;28;20075;-41
2021/01/30 11:51:48;;;;;;;11.30;3.88;;;;;;;;;;5114898;28;20124;-43
2021/01/30 11:54:13;;;;;;;3.50;1.98;;;;;;;;;;5115225;28;20049;-43
2021/01/30 11:56:39;;;;;;;9.45;2.70;;;;;;;;;;5114526;28;20016;-41
2021/01/30 11:59:04;;;;;;;10.70;3.35;;;;;;;;;;5114792;28;20039;-44
2021/01/30 12:01:31;;;;;;;7.13;2.20;;;;;;;;;;5114387;28;20131;-41
2021/01/30 12:03:57;;;;;;;3.97;2.40;;;;;;;;;;5115017;28;20016;-46
2021/01/30 12:06:22;;;;;;;6.95;3.65;;;;;;;;;;5114455;28;20489;-44
2021/01/30 12:08:47;;;;;;;6.00;2.70;;;;;;;;;;5114864;28;20024;-44
2021/01/30 12:11:13;;;;;;;9.95;3.00;;;;;;;;;;5115035;28;20405;-43
2021/01/30 12:13:39;;;;;;;8.40;2.25;;;;;;;;;;5115081;28;20032;-44
2021/01/30 12:16:04;;;;;;;10.68;3.95;;;;;;;;;;5114040;28;20073;-43
2021/01/30 12:18:30;;;;;;;11.05;4.47;;;;;;;;;;5114501;28;20444;-42
2021/01/30 12:20:55;;;;;;;6.47;2.97;;;;;;;;;;5114221;28;20012;-44
2021/01/30 12:23:21;;;;;;;12.05;2.20;;;;;;;;;;5114445;28;20033;-41
2021/01/30 12:25:46;;;;;;;13.93;3.35;;;;;;;;;;5114043;28;20019;-45
2021/01/30 12:31:15;;;;;;;14.02;4.38;;;;;;;;;;5113851;28;20021;-46
2021/01/30 12:33:40;;;;;;;5.85;2.00;;;;;;;;;;5114417;28;20106;-49
2021/01/30 12:36:06;;;;;;;15.15;4.55;;;;;;;;;;5114071;28;20016;-44
2021/01/30 12:38:33;;;;;;;11.27;2.33;;;;;;;;;;5113563;28;20068;-43
2021/01/30 12:40:58;;;;;;;5.35;4.00;;;;;;;;;;5113643;28;20024;-45
2021/01/30 12:43:24;;;;;;;8.82;4.07;;;;;;;;;;5114084;28;20131;-42
2021/01/30 12:45:49;;;;;;;6.93;3.17;;;;;;;;;;5113587;28;20090;-47
2021/01/30 12:48:15;;;;;;;3.83;1.77;;;;;;;;;;5114431;27;20110;-46
2021/01/30 12:50:41;;;;;;;5.22;2.78;;;;;;;;;;5114367;28;20412;-44
2021/01/30 12:53:07;;;;;;;5.95;4.05;;;;;;;;;;5113771;28;20114;-44
2021/01/30 12:55:33;;;;;;;12.80;2.88;;;;;;;;;;5114267;28;20351;-43
2021/01/30 12:57:58;;;;;;;2.28;1.30;;;;;;;;;;5113913;28;20020;-43
2021/01/30 13:00:25;;;;;;;3.90;2.50;;;;;;;;;;5112587;28;20018;-45
2021/01/30 13:02:51;;;;;;;10.02;3.63;;;;;;;;;;5113879;28;20110;-42
2021/01/30 13:05:16;;;;;;;6.40;3.20;;;;;;;;;;5113544;28;20436;-42
2021/01/30 13:07:42;;;;;;;2.63;1.30;;;;;;;;;;5113777;28;20023;-41
2021/01/30 13:10:08;;;;;;;7.68;3.80;;;;;;;;;;5113515;28;20019;-42
2021/01/30 13:12:34;;;;;;;11.70;3.15;;;;;;;;;;5113729;28;20020;-46
2021/01/30 13:14:59;;;;;;;5.15;3.67;;;;;;;;;;5113818;28;20015;-43
2021/01/30 13:17:24;;;;;;;5.85;2.45;;;;;;;;;;5113628;28;20092;-44
2021/01/30 13:19:50;;;;;;;7.35;3.53;;;;;;;;;;5114312;28;20027;-43
2021/01/30 13:22:15;;;;;;;7.32;1.55;;;;;;;;;;5113660;28;20020;-45
2021/01/30 13:24:42;;;;;;;4.18;2.35;;;;;;;;;;5113320;28;20020;-47
2021/01/30 13:27:08;;;;;;;7.47;3.55;;;;;;;;;;5113519;28;20039;-42
2021/01/30 13:29:33;;;;;;;4.13;2.75;;;;;;;;;;5113396;28;20454;-44
2021/01/30 13:31:59;;;;;;;9.38;3.35;;;;;;;;;;5113231;28;20032;-44
2021/01/30 13:34:25;;;;;;;4.80;1.35;;;;;;;;;;5113236;28;20044;-46
2021/01/30 13:36:51;;;;;;;2.63;1.50;;;;;;;;;;5113086;28;20042;-47
2021/01/30 13:39:16;;;;;;;3.92;1.25;;;;;;;;;;5112974;28;20016;-42
2021/01/30 13:41:41;;;;;;;6.55;3.03;;;;;;;;;;5113194;28;20026;-42
2021/01/30 13:44:08;;;;;;;7.00;1.92;;;;;;;;;;5113666;28;20451;-42
2021/01/30 13:46:33;;;;;;;5.57;2.10;;;;;;;;;;5113591;28;20031;-48
2021/01/30 13:48:59;;;;;;;6.15;2.65;;;;;;;;;;5113116;28;20020;-49
2021/01/30 13:51:24;;;;;;;3.15;1.48;;;;;;;;;;5113346;28;20020;-47
2021/01/30 13:53:49;;;;;;;4.85;1.80;;;;;;;;;;5112829;28;20125;-42
2021/01/30 13:56:15;;;;;;;9.48;4.10;;;;;;;;;;5112791;28;20022;-44
2021/01/30 13:58:40;;;;;;;1.98;1.42;;;;;;;;;;5114032;28;20412;-43
2021/01/30 14:01:05;;;;;;;4.85;2.28;;;;;;;;;;5113033;28;20050;-42
2021/01/30 14:03:31;;;;;;;2.08;1.58;;;;;;;;;;5112882;28;20027;-43
2021/01/30 14:05:56;;;;;;;6.75;3.88;;;;;;;;;;5112899;28;20385;-44
2021/01/30 14:08:21;;;;;;;10.63;4.40;;;;;;;;;;5113328;28;20028;-41
2021/01/30 14:10:47;;;;;;;10.57;4.07;;;;;;;;;;5113482;28;20463;-43
2021/01/30 14:13:12;;;;;;;5.28;2.80;;;;;;;;;;5116927;28;20024;-42
2021/01/30 14:15:37;;;;;;;6.57;3.75;;;;;;;;;;5116596;28;20020;-42
2021/01/30 14:18:03;;;;;;;11.15;3.80;;;;;;;;;;5117138;28;20019;-44
2021/01/30 14:20:29;;;;;;;2.80;1.70;;;;;;;;;;5116611;28;20019;-44
2021/01/30 14:22:54;;;;;;;3.85;1.35;;;;;;;;;;5116809;28;20026;-42
2021/01/30 14:25:20;;;;;;;3.75;2.22;;;;;;;;;;5116169;28;20015;-44
2021/01/30 14:27:45;;;;;;;7.40;3.40;;;;;;;;;;5116975;28;20020;-41
2021/01/30 14:30:12;;;;;;;13.93;2.28;;;;;;;;;;5116484;28;20494;-41
2021/01/30 14:32:37;;;;;;;8.55;3.50;;;;;;;;;;5116525;28;20069;-41
2021/01/30 14:35:03;;;;;;;1.25;1.13;;;;;;;;;;5116620;28;20436;-44
2021/01/30 14:37:29;;;;;;;11.10;3.50;;;;;;;;;;5116306;28;20076;-43
2021/01/30 14:39:54;;;;;;;18.73;4.38;;;;;;;;;;5116258;28;20011;-45
2021/01/30 14:42:19;;;;;;;11.45;3.00;;;;;;;;;;5116098;28;20027;-42
2021/01/30 14:44:46;;;;;;;7.88;4.15;;;;;;;;;;5116204;28;20089;-43
2021/01/30 14:47:11;;;;;;;8.50;4.82;;;;;;;;;;5115866;28;20409;-44
2021/01/30 14:49:36;;;;;;;8.43;2.78;;;;;;;;;;5116044;28;20077;-41
2021/01/30 14:52:02;;;;;;;8.25;3.08;;;;;;;;;;5115786;28;20030;-42
2021/01/30 14:54:28;;;;;;;18.10;5.88;;;;;;;;;;5116325;28;20026;-42